createdAt,value
2022-07-29T00:02:19.585Z,13.58
2022-07-29T00:04:57.688Z,12.78
2022-07-29T00:07:27.881Z,12.68
2022-07-29T00:09:58.743Z,11.95
2022-07-29T00:12:29.961Z,11.75
2022-07-29T00:15:01.401Z,11.00
2022-07-29T00:17:32.341Z,12.10
2022-07-29T00:20:10.033Z,12.00
2022-07-29T00:22:42.301Z,11.33
2022-07-29T00:25:13.688Z,11.57
2022-07-29T00:27:44.607Z,11.60
2022-07-29T00:30:15.640Z,11.60
2022-07-29T00:32:46.675Z,11.78
2022-07-29T00:35:21.096Z,12.15
2022-07-29T00:37:52.240Z,11.85
2022-07-29T00:40:24.614Z,12.58
2022-07-29T00:42:56.340Z,11.33
2022-07-29T00:45:27.516Z,11.55
2022-07-29T00:48:01.936Z,11.63
2022-07-29T00:50:32.984Z,11.88
2022-07-29T00:53:07.020Z,12.20
2022-07-29T00:55:42.553Z,12.40
2022-07-29T00:58:15.540Z,12.45
2022-07-29T01:00:53.311Z,12.73
2022-07-29T01:03:24.520Z,12.10
2022-07-29T01:05:56.331Z,12.30
2022-07-29T01:08:27.676Z,12.58
2022-07-29T01:10:58.718Z,12.68
2022-07-29T01:13:29.829Z,12.28
2022-07-29T01:16:03.101Z,12.47
2022-07-29T01:18:36.757Z,12.43
2022-07-29T01:21:13.753Z,11.83
2022-07-29T01:23:45.225Z,12.23
2022-07-29T01:26:20.270Z,12.50
2022-07-29T01:28:51.318Z,12.30
2022-07-29T01:31:26.713Z,11.95
2022-07-29T01:34:00.737Z,11.45
2022-07-29T01:36:36.477Z,10.88
2022-07-29T01:39:12.942Z,11.30
2022-07-29T01:41:48.537Z,10.90
2022-07-29T01:44:21.171Z,10.15
2022-07-29T01:46:54.514Z,10.18
2022-07-29T01:49:28.014Z,10.05
2022-07-29T01:52:01.360Z,9.45
2022-07-29T01:54:34.727Z,9.68
2022-07-29T01:57:07.648Z,9.23
2022-07-29T01:59:40.716Z,9.23
2022-07-29T02:02:14.644Z,9.25
2022-07-29T02:04:49.098Z,9.10
2022-07-29T02:07:22.549Z,9.73
2022-07-29T02:09:55.497Z,8.98
2022-07-29T02:12:27.816Z,9.03
2022-07-29T02:15:00.804Z,8.83
2022-07-29T02:17:38.868Z,9.93
2022-07-29T02:20:10.960Z,8.58
2022-07-29T02:22:44.679Z,8.60
2022-07-29T02:25:22.791Z,8.68
2022-07-29T02:27:57.303Z,8.73
2022-07-29T02:30:29.095Z,9.13
2022-07-29T02:33:01.351Z,9.80
2022-07-29T02:35:48.877Z,9.18
2022-07-29T02:38:22.979Z,9.33
2022-07-29T02:40:56.596Z,8.73
2022-07-29T02:43:29.175Z,8.58
2022-07-29T02:46:01.443Z,7.95
2022-07-29T02:48:34.920Z,8.18
2022-07-29T02:51:08.212Z,8.63
2022-07-29T02:53:41.919Z,8.45
2022-07-29T02:56:15.193Z,8.75
2022-07-29T02:58:48.590Z,9.05
2022-07-29T03:01:22.151Z,8.78
2022-07-29T03:03:54.767Z,8.80
2022-07-29T03:06:30.983Z,8.60
2022-07-29T03:09:01.003Z,8.60
2022-07-29T03:11:46.376Z,8.50
2022-07-29T03:14:06.236Z,8.58
2022-07-29T03:16:41.244Z,9.35
2022-07-29T03:19:11.217Z,8.70
2022-07-29T03:21:42.153Z,8.45
2022-07-29T03:24:13.405Z,9.33
2022-07-29T03:26:44.717Z,8.23
2022-07-29T03:29:15.471Z,9.03
2022-07-29T03:31:46.409Z,7.58
2022-07-29T03:34:18.927Z,8.30
2022-07-29T03:36:50.600Z,8.45
2022-07-29T03:39:23.914Z,8.23
2022-07-29T03:41:57.067Z,7.92
2022-07-29T03:44:29.388Z,8.50
2022-07-29T03:47:04.216Z,8.35
2022-07-29T03:49:43.241Z,8.08
2022-07-29T03:52:14.281Z,7.53
2022-07-29T03:54:45.118Z,7.55
2022-07-29T03:57:16.486Z,8.03
2022-07-29T03:59:48.239Z,7.30
2022-07-29T04:02:22.418Z,7.87
2022-07-29T04:04:51.542Z,7.05
2022-07-29T04:07:22.586Z,7.80
2022-07-29T04:09:53.620Z,6.83
2022-07-29T04:12:24.443Z,7.25
2022-07-29T04:14:55.403Z,7.70
2022-07-29T04:17:26.137Z,7.60
2022-07-29T04:19:57.078Z,8.05
2022-07-29T04:22:28.128Z,7.37
2022-07-29T04:25:03.784Z,6.95
2022-07-29T04:27:31.330Z,6.62
2022-07-29T04:30:02.777Z,7.20
2022-07-29T04:32:33.509Z,7.12
2022-07-29T04:35:04.754Z,7.12
2022-07-29T04:37:35.717Z,7.58
2022-07-29T04:40:07.028Z,6.92
2022-07-29T04:42:47.875Z,7.10
2022-07-29T04:45:22.646Z,6.97
2022-07-29T04:47:51.661Z,7.25
2022-07-29T04:50:22.567Z,7.22
2022-07-29T04:52:53.646Z,7.72
2022-07-29T04:55:24.491Z,7.25
2022-07-29T04:57:56.010Z,6.45
2022-07-29T05:00:33.292Z,6.58
2022-07-29T05:02:59.361Z,7.17
2022-07-29T05:05:30.271Z,6.50
2022-07-29T05:08:01.109Z,7.00
2022-07-29T05:10:32.044Z,6.47
2022-07-29T05:13:03.295Z,6.80
2022-07-29T05:15:36.726Z,6.80
2022-07-29T05:18:08.035Z,6.00
2022-07-29T05:20:39.380Z,6.97
2022-07-29T05:23:10.226Z,6.55
2022-07-29T05:25:44.121Z,6.45
2022-07-29T05:28:13.639Z,7.50
2022-07-29T05:30:45.905Z,6.85
2022-07-29T05:33:35.372Z,6.75
2022-07-29T05:35:49.337Z,6.62
2022-07-29T05:38:20.073Z,6.70
2022-07-29T05:40:52.316Z,7.20
2022-07-29T05:43:23.254Z,7.37
2022-07-29T05:45:54.610Z,7.00
2022-07-29T05:48:26.579Z,7.30
2022-07-29T05:50:58.170Z,7.08
2022-07-29T05:53:29.161Z,6.80
2022-07-29T05:56:00.304Z,7.00
2022-07-29T05:58:32.585Z,6.92
2022-07-29T06:01:05.298Z,6.70
2022-07-29T06:03:37.834Z,7.20
2022-07-29T06:06:09.436Z,7.33
2022-07-29T06:08:44.535Z,10.85
2022-07-29T06:11:16.076Z,9.53
2022-07-29T06:13:47.115Z,9.95
2022-07-29T06:16:29.777Z,9.25
2022-07-29T06:18:50.655Z,10.15
2022-07-29T06:21:21.814Z,11.03
2022-07-29T06:23:52.748Z,10.72
2022-07-29T06:26:30.675Z,8.00
2022-07-29T06:28:56.251Z,6.97
2022-07-29T06:31:28.407Z,5.50
2022-07-29T06:33:59.444Z,4.83
2022-07-29T06:36:30.282Z,6.15
2022-07-29T06:39:01.194Z,5.65
2022-07-29T06:41:33.507Z,6.00
2022-07-29T06:44:04.848Z,5.17
2022-07-29T06:46:36.078Z,5.50
2022-07-29T06:49:07.375Z,5.22
2022-07-29T06:51:38.479Z,5.85
2022-07-29T06:54:09.563Z,5.40
2022-07-29T06:56:40.632Z,5.30
2022-07-29T06:59:13.496Z,5.40
2022-07-29T07:01:46.415Z,5.05
2022-07-29T07:04:17.581Z,5.37
2022-07-29T07:06:48.680Z,5.95
2022-07-29T07:09:19.417Z,5.60
2022-07-29T07:11:50.280Z,5.78
2022-07-29T07:14:21.504Z,5.85
2022-07-29T07:16:52.775Z,4.55
2022-07-29T07:19:25.158Z,4.08
2022-07-29T07:21:57.082Z,4.03
2022-07-29T07:24:28.310Z,4.03
2022-07-29T07:26:59.315Z,4.70
2022-07-29T07:29:30.173Z,4.97
2022-07-29T07:32:02.086Z,5.62
2022-07-29T07:34:32.822Z,6.37
2022-07-29T07:37:03.685Z,7.60
2022-07-29T07:39:34.817Z,5.47
2022-07-29T07:42:06.194Z,5.37
2022-07-29T07:44:57.358Z,5.30
2022-07-29T07:47:12.352Z,4.78
2022-07-29T07:49:42.400Z,5.12
2022-07-29T07:52:14.850Z,5.40
2022-07-29T07:54:46.889Z,5.12
2022-07-29T07:57:18.625Z,5.92
2022-07-29T07:59:50.651Z,6.30
2022-07-29T08:02:21.881Z,5.85
2022-07-29T08:04:52.887Z,7.25
2022-07-29T08:07:23.854Z,6.17
2022-07-29T08:09:54.753Z,6.30
2022-07-29T08:12:25.826Z,8.15
2022-07-29T08:14:56.837Z,6.17
2022-07-29T08:17:28.754Z,6.67
2022-07-29T08:19:59.687Z,5.87
2022-07-29T08:22:30.635Z,6.10
2022-07-29T08:25:01.562Z,6.08
2022-07-29T08:27:44.437Z,6.33
2022-07-29T08:30:09.612Z,5.85
2022-07-29T08:32:56.377Z,5.87
2022-07-29T08:35:17.113Z,5.58
2022-07-29T08:37:48.569Z,5.33
2022-07-29T08:40:19.756Z,5.95
2022-07-29T08:42:50.628Z,5.20
2022-07-29T08:45:21.493Z,5.12
2022-07-29T08:47:52.377Z,5.65
2022-07-29T08:50:23.318Z,5.75
2022-07-29T08:52:59.706Z,5.15
2022-07-29T08:55:28.319Z,5.12
2022-07-29T08:57:59.941Z,5.50
2022-07-29T09:00:31.932Z,5.20
2022-07-29T09:03:03.582Z,5.87
2022-07-29T09:05:40.160Z,5.50
2022-07-29T09:08:09.330Z,5.25
2022-07-29T09:10:40.873Z,5.17
2022-07-29T09:13:11.933Z,5.42
2022-07-29T09:15:51.150Z,5.65
2022-07-29T09:18:30.597Z,5.15
2022-07-29T09:20:59.781Z,5.08
2022-07-29T09:23:33.627Z,5.95
2022-07-29T09:26:07.002Z,5.03
2022-07-29T09:28:43.220Z,6.03
2022-07-29T09:31:15.261Z,5.08
2022-07-29T09:33:51.608Z,4.47
2022-07-29T09:38:54.946Z,4.80
2022-07-29T09:41:25.689Z,5.00
2022-07-29T09:43:58.974Z,5.10
2022-07-29T09:46:30.369Z,4.78
2022-07-29T09:49:07.112Z,4.87
2022-07-29T09:51:39.647Z,4.80
2022-07-29T09:54:16.678Z,5.50
2022-07-29T09:56:50.157Z,5.50
2022-07-29T09:59:22.688Z,5.47
2022-07-29T10:01:54.132Z,4.97
2022-07-29T10:04:26.402Z,5.28
2022-07-29T10:07:04.310Z,5.25
2022-07-29T10:09:32.073Z,5.42
2022-07-29T10:12:05.464Z,5.55
2022-07-29T10:14:37.356Z,5.25
2022-07-29T10:17:09.995Z,5.20
2022-07-29T10:19:42.276Z,6.30
2022-07-29T10:22:31.204Z,6.20
2022-07-29T10:24:47.076Z,5.87
2022-07-29T10:27:18.386Z,6.15
2022-07-29T10:29:49.313Z,5.55
2022-07-29T10:32:22.784Z,5.78
2022-07-29T10:34:52.917Z,5.70
2022-07-29T10:37:25.111Z,5.85
2022-07-29T10:39:59.224Z,6.10
2022-07-29T10:45:07.070Z,5.95
2022-07-29T10:47:37.892Z,5.95
2022-07-29T10:50:13.985Z,5.50
2022-07-29T10:52:45.168Z,5.25
2022-07-29T10:55:19.400Z,5.00
2022-07-29T10:57:54.862Z,5.25
2022-07-29T11:00:26.636Z,5.60
2022-07-29T11:03:00.366Z,5.60
2022-07-29T11:05:40.842Z,5.72
2022-07-29T11:08:08.584Z,6.53
2022-07-29T11:10:40.091Z,5.78
2022-07-29T11:13:12.270Z,6.37
2022-07-29T11:15:45.858Z,6.35
2022-07-29T11:18:17.346Z,5.90
2022-07-29T11:20:52.073Z,6.30
2022-07-29T11:23:26.866Z,5.62
2022-07-29T11:26:00.037Z,6.28
2022-07-29T11:28:32.707Z,6.00
2022-07-29T11:31:04.776Z,6.12
2022-07-29T11:33:56.280Z,6.40
2022-07-29T11:36:16.856Z,6.00
2022-07-29T11:38:45.719Z,6.22
2022-07-29T11:41:20.955Z,6.17
2022-07-29T12:32:51.890Z,9.18
2022-07-29T12:38:18.198Z,9.80
2022-07-29T12:43:45.381Z,11.40
2022-07-29T12:46:29.404Z,10.97
2022-07-29T12:49:18.388Z,11.12
2022-07-29T13:08:58.423Z,11.65
2022-07-29T13:23:21.333Z,10.50
2022-07-29T13:54:51.654Z,10.85
2022-07-29T13:57:27.129Z,11.08
2022-07-29T14:09:16.253Z,10.75
2022-07-29T14:32:01.304Z,12.98
2022-07-29T14:43:00.008Z,12.73
2022-07-29T14:45:30.815Z,12.70
2022-07-29T14:48:06.583Z,12.40
2022-07-29T14:50:54.794Z,12.20
2022-07-29T14:53:28.070Z,13.10
2022-07-29T14:56:15.016Z,11.73
2022-07-29T14:58:32.649Z,12.70
2022-07-29T15:01:03.531Z,12.37
2022-07-29T15:03:34.598Z,12.33
2022-07-29T15:06:07.982Z,13.22
2022-07-29T15:08:40.050Z,13.53
2022-07-29T15:11:12.083Z,12.10
2022-07-29T15:13:42.952Z,12.70
2022-07-29T15:16:18.037Z,13.98
2022-07-29T15:18:48.959Z,14.53
2022-07-29T15:21:22.636Z,15.65
2022-07-29T15:23:53.713Z,14.00
2022-07-29T15:26:24.751Z,14.95
2022-07-29T15:28:57.169Z,14.83
2022-07-29T15:31:27.962Z,14.43
2022-07-29T15:34:01.272Z,13.25
2022-07-29T15:39:03.487Z,12.98
2022-07-29T15:41:34.289Z,12.07
2022-07-29T15:44:05.457Z,12.73
2022-07-29T15:46:37.601Z,12.75
2022-07-29T15:49:12.685Z,11.93
2022-07-29T15:51:44.107Z,12.55
2022-07-29T15:54:17.018Z,12.33
2022-07-29T15:56:50.312Z,12.37
2022-07-29T15:59:22.400Z,12.75
2022-07-29T16:01:52.296Z,12.82
2022-07-29T16:04:23.844Z,13.25
2022-07-29T16:06:56.019Z,12.03
2022-07-29T16:09:28.678Z,12.75
2022-07-29T16:12:00.945Z,12.80
2022-07-29T16:14:31.759Z,12.88
2022-07-29T16:17:04.137Z,12.30
2022-07-29T16:19:35.291Z,11.63
2022-07-29T16:22:07.858Z,12.75
2022-07-29T16:24:39.501Z,12.65
2022-07-29T16:27:11.722Z,12.33
2022-07-29T16:29:42.796Z,13.05
2022-07-29T16:32:13.576Z,13.22
2022-07-29T16:34:54.690Z,12.78
2022-07-29T16:37:28.850Z,14.55
2022-07-29T16:40:04.405Z,13.93
2022-07-29T16:42:50.712Z,13.75
2022-07-29T16:45:08.659Z,13.45
2022-07-29T16:47:43.353Z,13.25
2022-07-29T16:50:14.371Z,13.38
2022-07-29T16:52:45.356Z,12.98
2022-07-29T16:55:17.739Z,12.00
2022-07-29T16:57:48.996Z,12.10
2022-07-29T17:00:23.441Z,12.78
2022-07-29T17:02:54.544Z,12.33
2022-07-29T17:05:25.673Z,12.75
2022-07-29T17:07:57.470Z,12.03
2022-07-29T17:10:30.970Z,12.25
2022-07-29T17:13:01.900Z,12.80
2022-07-29T17:15:32.754Z,13.28
2022-07-29T17:18:12.280Z,14.75
2022-07-29T17:20:42.404Z,14.78
2022-07-29T17:23:13.233Z,14.00
2022-07-29T17:25:43.982Z,15.08
2022-07-29T17:28:17.034Z,15.00
2022-07-29T17:30:47.264Z,15.83
2022-07-29T17:33:18.205Z,15.90
2022-07-29T17:35:53.134Z,15.50
2022-07-29T17:38:26.760Z,14.23
2022-07-29T17:41:03.317Z,14.10
2022-07-29T17:43:37.840Z,14.13
2022-07-29T17:46:15.846Z,14.60
2022-07-29T17:48:48.452Z,12.30
2022-07-29T17:51:22.326Z,12.58
2022-07-29T17:53:53.629Z,12.37
2022-07-29T17:56:28.177Z,12.60
2022-07-29T17:59:01.181Z,11.93
2022-07-29T18:01:34.940Z,12.50
2022-07-29T18:04:08.698Z,11.90
2022-07-29T18:06:39.748Z,13.00
2022-07-29T18:09:13.644Z,13.03
2022-07-29T18:11:45.761Z,13.68
2022-07-29T18:14:18.300Z,13.00
2022-07-29T18:16:49.227Z,11.55
2022-07-29T18:19:20.371Z,12.30
2022-07-29T18:21:54.662Z,12.03
2022-07-29T18:24:23.393Z,12.03
2022-07-29T18:26:54.045Z,10.98
2022-07-29T18:29:24.925Z,10.70
2022-07-29T18:31:55.551Z,10.35
2022-07-29T18:34:26.489Z,11.20
2022-07-29T18:36:57.727Z,9.80
2022-07-29T18:39:28.904Z,10.45
2022-07-29T18:42:00.059Z,9.35
2022-07-29T18:44:31.142Z,8.13
2022-07-29T18:47:04.095Z,9.40
2022-07-29T18:49:36.365Z,9.08
2022-07-29T18:52:08.412Z,9.80
2022-07-29T18:54:39.275Z,8.48
2022-07-29T18:57:55.049Z,8.45
2022-07-29T18:59:45.300Z,9.08
2022-07-29T19:02:17.622Z,8.65
2022-07-29T19:04:49.876Z,8.60
2022-07-29T19:07:22.984Z,7.95
2022-07-29T19:09:54.515Z,7.65
2022-07-29T19:12:25.547Z,8.93
2022-07-29T19:14:56.793Z,7.60
2022-07-29T19:17:27.835Z,8.33
2022-07-29T19:19:58.775Z,8.38
2022-07-29T19:22:29.617Z,8.13
2022-07-29T19:25:00.552Z,7.33
2022-07-29T19:27:31.404Z,8.03
2022-07-29T19:30:02.136Z,8.50
2022-07-29T19:32:32.868Z,7.92
2022-07-29T19:35:05.260Z,7.78
2022-07-29T19:37:36.190Z,7.92
2022-07-29T19:40:08.049Z,7.60
2022-07-29T19:42:38.891Z,8.33
2022-07-29T19:45:10.524Z,8.43
2022-07-29T19:47:41.583Z,8.30
2022-07-29T19:50:12.922Z,8.20
2022-07-29T19:52:43.964Z,8.20
2022-07-29T19:55:15.621Z,7.97
2022-07-29T19:57:47.433Z,8.00
2022-07-29T20:00:20.992Z,8.13
2022-07-29T20:02:52.976Z,7.85
2022-07-29T20:05:28.178Z,7.92
2022-07-29T20:07:56.096Z,7.75
2022-07-29T20:10:26.935Z,8.58
2022-07-29T20:12:58.226Z,7.75
2022-07-29T20:15:29.060Z,8.88
2022-07-29T20:17:59.916Z,7.90
2022-07-29T20:20:31.364Z,8.38
2022-07-29T20:23:03.684Z,7.42
2022-07-29T20:25:34.476Z,8.20
2022-07-29T20:28:05.496Z,7.25
2022-07-29T20:30:38.533Z,7.33
2022-07-29T20:33:08.662Z,7.03
2022-07-29T20:35:40.819Z,7.03
2022-07-29T20:38:15.015Z,6.62
2022-07-29T20:40:44.190Z,7.10
2022-07-29T20:43:15.228Z,7.25
2022-07-29T20:45:46.578Z,6.95
2022-07-29T20:48:17.721Z,6.85
2022-07-29T20:50:50.101Z,6.67
2022-07-29T20:53:21.603Z,6.97
2022-07-29T20:55:52.622Z,6.50
2022-07-29T20:58:23.520Z,6.58
2022-07-29T21:00:54.855Z,7.10
2022-07-29T21:03:26.167Z,7.12
2022-07-29T21:05:57.679Z,7.53
2022-07-29T21:08:29.491Z,7.28
2022-07-29T21:11:00.270Z,8.18
2022-07-29T21:13:31.311Z,7.92
2022-07-29T21:16:06.331Z,7.78
2022-07-29T21:18:36.271Z,7.70
2022-07-29T21:21:08.332Z,7.95
2022-07-29T21:23:39.472Z,8.15
2022-07-29T21:26:12.978Z,7.40
2022-07-29T21:28:42.587Z,8.20
2022-07-29T21:31:16.131Z,7.95
2022-07-29T21:33:48.902Z,7.67
2022-07-29T21:36:47.234Z,8.70
2022-07-29T21:38:51.779Z,7.60
2022-07-29T21:41:23.624Z,7.20
2022-07-29T21:43:58.331Z,7.67
2022-07-29T21:46:28.161Z,7.30
2022-07-29T21:48:59.324Z,8.00
2022-07-29T21:51:31.577Z,8.30
2022-07-29T21:54:02.620Z,8.60
2022-07-29T21:56:34.213Z,8.03
2022-07-29T21:59:09.723Z,8.05
2022-07-29T22:01:39.230Z,8.30
2022-07-29T22:04:10.693Z,8.43
2022-07-29T22:06:42.355Z,8.95
2022-07-29T22:09:13.168Z,8.65
2022-07-29T22:11:44.110Z,8.60
2022-07-29T22:14:16.331Z,8.55
2022-07-29T22:16:48.536Z,8.63
2022-07-29T22:19:19.526Z,8.50
2022-07-29T22:21:50.503Z,9.13
2022-07-29T22:24:23.115Z,8.68
2022-07-29T22:26:53.859Z,8.90
2022-07-29T22:29:24.785Z,9.50
2022-07-29T22:31:55.718Z,8.95
2022-07-29T22:34:26.553Z,9.40
2022-07-29T22:36:59.150Z,9.60
2022-07-29T22:39:30.289Z,9.00
2022-07-29T22:42:01.318Z,9.08
2022-07-29T22:44:32.152Z,9.08
2022-07-29T22:47:03.640Z,9.95
2022-07-29T22:49:34.755Z,9.83
2022-07-29T22:52:06.448Z,9.85
2022-07-29T22:54:38.743Z,9.58
2022-07-29T22:57:09.514Z,10.50
2022-07-29T22:59:40.262Z,10.55
2022-07-29T23:02:10.986Z,10.10
2022-07-29T23:04:41.810Z,10.50
2022-07-29T23:07:13.035Z,10.10
2022-07-29T23:09:43.924Z,10.30
2022-07-29T23:12:14.827Z,10.55
2022-07-29T23:14:45.576Z,10.78
2022-07-29T23:17:16.437Z,11.38
2022-07-29T23:19:47.326Z,10.75
2022-07-29T23:22:19.772Z,10.82
2022-07-29T23:24:50.456Z,11.38
2022-07-29T23:27:21.395Z,10.40
2022-07-29T23:29:52.152Z,11.28
2022-07-29T23:32:22.966Z,11.20
2022-07-29T23:34:53.765Z,11.25
2022-07-29T23:37:24.844Z,11.95
2022-07-29T23:39:57.115Z,11.83
2022-07-29T23:42:28.045Z,11.43
2022-07-29T23:44:58.834Z,11.33
2022-07-29T23:47:30.231Z,11.75
2022-07-29T23:50:01.281Z,11.38
2022-07-29T23:52:32.007Z,11.10
2022-07-29T23:55:36.352Z,10.95
2022-07-29T23:57:35.553Z,12.03
